createdAt,value
2019-03-04T00:00:01.384Z,8.83
2019-03-04T00:02:37.907Z,8.84
2019-03-04T00:05:08.543Z,8.86
2019-03-04T00:07:44.500Z,8.87
2019-03-04T00:10:17.759Z,8.85
2019-03-04T00:12:56.855Z,8.88
2019-03-04T00:15:28.861Z,8.90
2019-03-04T00:18:03.271Z,8.89
2019-03-04T00:20:38.069Z,8.88
2019-03-04T00:23:15.109Z,8.89
2019-03-04T00:25:52.067Z,8.87
2019-03-04T00:28:22.597Z,8.89
2019-03-04T00:30:54.048Z,8.91
2019-03-04T00:33:25.190Z,8.92
2019-03-04T00:35:55.441Z,8.90
2019-03-04T00:38:27.174Z,8.91
2019-03-04T00:40:57.700Z,8.93
2019-03-04T00:43:28.221Z,8.92
2019-03-04T00:45:58.459Z,8.93
2019-03-04T00:48:29.897Z,8.96
2019-03-04T00:51:00.145Z,8.99
2019-03-04T00:53:30.650Z,9.01
2019-03-04T00:56:04.256Z,9.03
2019-03-04T00:58:34.492Z,8.99
2019-03-04T01:01:06.859Z,9.02
2019-03-04T01:03:37.372Z,9.01
2019-03-04T01:06:07.617Z,9.01
2019-03-04T01:08:39.062Z,9.02
2019-03-04T01:11:09.583Z,9.06
2019-03-04T01:13:40.730Z,9.08
2019-03-04T01:16:10.961Z,9.09
2019-03-04T01:18:42.403Z,9.11
2019-03-04T01:21:12.643Z,9.10
2019-03-04T01:23:44.991Z,9.09
2019-03-04T01:26:15.240Z,9.12
2019-03-04T01:28:47.592Z,9.10
2019-03-04T01:31:17.834Z,9.09
2019-03-04T01:33:48.959Z,9.09
2019-03-04T01:36:19.200Z,9.10
2019-03-04T01:38:49.437Z,9.09
2019-03-04T01:41:19.688Z,9.10
2019-03-04T01:43:49.930Z,9.10
2019-03-04T01:46:20.168Z,9.10
2019-03-04T01:48:50.977Z,9.08
2019-03-04T01:51:21.294Z,9.09
2019-03-04T01:53:51.527Z,9.12
2019-03-04T01:56:21.777Z,9.12
2019-03-04T01:58:52.027Z,9.15
2019-03-04T02:01:23.282Z,9.17
2019-03-04T02:03:53.520Z,9.16
2019-03-04T02:06:23.769Z,9.15
2019-03-04T02:08:54.000Z,9.19
2019-03-04T02:11:24.245Z,9.23
2019-03-04T02:13:54.490Z,9.24
2019-03-04T02:16:24.738Z,9.28
2019-03-04T02:18:54.972Z,9.28
2019-03-04T02:21:25.207Z,9.27
2019-03-04T02:23:55.440Z,9.30
2019-03-04T02:26:25.683Z,9.33
2019-03-04T02:28:55.992Z,9.30
2019-03-04T02:31:27.205Z,9.34
2019-03-04T02:33:57.679Z,9.36
2019-03-04T02:36:27.923Z,9.37
2019-03-04T02:38:58.158Z,9.37
2019-03-04T02:41:28.397Z,9.39
2019-03-04T02:43:58.654Z,9.37
2019-03-04T02:46:28.947Z,9.38
2019-03-04T02:48:59.187Z,9.37
2019-03-04T02:51:29.426Z,9.36
2019-03-04T02:53:59.739Z,9.34
2019-03-04T02:56:30.409Z,9.32
2019-03-04T02:59:00.656Z,9.31
2019-03-04T03:01:30.972Z,9.30
2019-03-04T03:04:01.219Z,9.26
2019-03-04T03:06:31.820Z,9.23
2019-03-04T03:09:02.063Z,9.20
2019-03-04T03:11:34.284Z,9.17
2019-03-04T03:14:04.516Z,9.11
2019-03-04T03:16:34.759Z,9.07
2019-03-04T03:19:05.004Z,9.01
2019-03-04T03:21:35.238Z,8.97
2019-03-04T03:24:05.476Z,8.90
2019-03-04T03:26:36.082Z,8.85
2019-03-04T03:29:06.325Z,8.79
2019-03-04T03:31:36.587Z,8.73
2019-03-04T03:34:07.937Z,8.67
2019-03-04T03:36:38.195Z,8.64
2019-03-04T03:39:08.425Z,8.64
2019-03-04T03:41:38.689Z,8.58
2019-03-04T03:44:08.929Z,8.55
2019-03-04T03:46:39.187Z,8.50
2019-03-04T03:49:09.419Z,8.46
2019-03-04T03:51:39.677Z,8.42
2019-03-04T03:54:09.989Z,8.39
2019-03-04T03:56:40.316Z,8.36
2019-03-04T03:59:10.572Z,8.31
2019-03-04T04:01:40.831Z,8.25
2019-03-04T04:04:12.809Z,8.22
2019-03-04T04:06:43.075Z,8.17
2019-03-04T04:09:13.898Z,8.12
2019-03-04T04:11:44.156Z,8.07
2019-03-04T04:14:14.405Z,8.05
2019-03-04T04:16:44.660Z,8.06
2019-03-04T04:19:14.912Z,8.09
2019-03-04T04:21:45.152Z,8.10
2019-03-04T04:24:15.394Z,8.14
2019-03-04T04:26:45.650Z,8.20
2019-03-04T04:29:15.885Z,8.20
2019-03-04T04:31:46.145Z,8.23
2019-03-04T04:34:17.267Z,8.30
2019-03-04T04:36:47.519Z,8.31
2019-03-04T04:39:17.755Z,8.39
2019-03-04T04:41:48.006Z,8.45
2019-03-04T04:44:18.249Z,8.48
2019-03-04T04:46:53.451Z,8.53
2019-03-04T04:49:23.687Z,8.53
2019-03-04T04:51:53.944Z,8.53
2019-03-04T04:54:24.251Z,8.57
2019-03-04T04:56:54.513Z,8.59
2019-03-04T04:59:24.747Z,8.65
2019-03-04T05:01:55.281Z,8.69
2019-03-04T05:04:25.594Z,8.73
2019-03-04T05:06:55.854Z,8.74
2019-03-04T05:09:26.099Z,8.78
2019-03-04T05:11:56.362Z,8.81
2019-03-04T05:14:26.615Z,8.83
2019-03-04T05:16:56.945Z,8.85
2019-03-04T05:19:28.452Z,8.90
2019-03-04T05:21:58.692Z,8.91
2019-03-04T05:24:29.699Z,8.86
2019-03-04T05:27:00.330Z,8.79
2019-03-04T05:29:30.652Z,8.75
2019-03-04T05:32:00.989Z,8.70
2019-03-04T05:34:33.073Z,8.67
2019-03-04T05:37:03.592Z,8.66
2019-03-04T05:39:35.035Z,8.68
2019-03-04T05:42:06.490Z,8.70
2019-03-04T05:44:36.769Z,8.72
2019-03-04T05:47:07.018Z,8.75
2019-03-04T05:49:37.269Z,8.76
2019-03-04T05:52:07.512Z,8.78
2019-03-04T05:54:37.753Z,8.83
2019-03-04T05:57:08.074Z,8.86
2019-03-04T05:59:38.321Z,8.91
2019-03-04T06:02:08.574Z,9.00
2019-03-04T06:04:38.896Z,9.08
2019-03-04T06:07:10.855Z,9.10
2019-03-04T06:09:41.409Z,9.30
2019-03-04T06:12:11.867Z,9.71
2019-03-04T06:14:43.189Z,12.03
2019-03-04T06:17:13.515Z,13.22
2019-03-04T06:19:44.112Z,12.19
2019-03-04T06:22:14.667Z,11.43
2019-03-04T06:24:44.940Z,11.93
2019-03-04T06:27:15.272Z,12.78
2019-03-04T06:29:45.652Z,11.42
2019-03-04T06:32:15.907Z,13.44
2019-03-04T06:34:46.699Z,15.72
2019-03-04T06:37:17.226Z,16.34
2019-03-04T06:39:47.562Z,17.16
2019-03-04T06:42:17.971Z,16.95
2019-03-04T06:44:48.243Z,17.87
2019-03-04T06:47:18.495Z,18.33
2019-03-04T06:49:48.827Z,19.47
2019-03-04T06:52:19.138Z,18.95
2019-03-04T06:54:55.334Z,19.44
2019-03-04T06:57:28.533Z,20.30
2019-03-04T07:00:16.973Z,18.93
2019-03-04T07:02:47.242Z,20.04
2019-03-04T07:05:40.016Z,21.30
2019-03-04T07:08:16.368Z,21.86
2019-03-04T07:10:46.639Z,22.51
2019-03-04T07:13:16.965Z,22.66
2019-03-04T07:15:48.832Z,23.10
2019-03-04T07:18:19.186Z,19.85
2019-03-04T07:20:49.713Z,18.99
2019-03-04T07:23:20.056Z,20.59
2019-03-04T07:25:50.312Z,21.71
2019-03-04T07:28:26.523Z,22.11
2019-03-04T07:30:56.855Z,22.75
2019-03-04T07:33:27.181Z,22.99
2019-03-04T07:35:58.383Z,23.31
2019-03-04T07:38:54.593Z,23.22
2019-03-04T07:41:25.038Z,21.71
2019-03-04T07:43:55.502Z,22.64
2019-03-04T07:46:26.957Z,22.84
2019-03-04T07:48:57.524Z,22.89
2019-03-04T07:51:29.644Z,23.25
2019-03-04T07:54:00.207Z,23.14
2019-03-04T07:56:33.251Z,23.54
2019-03-04T07:59:06.313Z,19.38
2019-03-04T08:01:36.588Z,18.02
2019-03-04T08:04:06.872Z,17.47
2019-03-04T08:06:37.200Z,16.17
2019-03-04T08:09:31.579Z,15.54
2019-03-04T08:12:37.819Z,15.22
2019-03-04T08:15:09.212Z,14.35
2019-03-04T08:17:39.609Z,13.77
2019-03-04T08:20:09.882Z,13.32
2019-03-04T08:22:41.670Z,13.29
2019-03-04T08:25:11.939Z,13.29
2019-03-04T08:27:43.431Z,13.01
2019-03-04T08:30:17.606Z,12.92
2019-03-04T08:32:47.926Z,12.71
2019-03-04T08:35:18.271Z,12.58
2019-03-04T08:37:48.538Z,12.47
2019-03-04T08:40:36.432Z,12.58
2019-03-04T08:43:06.684Z,12.39
2019-03-04T08:45:37.032Z,12.44
2019-03-04T08:48:07.391Z,12.60
2019-03-04T08:50:37.966Z,12.78
2019-03-04T08:53:08.299Z,13.04
2019-03-04T08:55:38.747Z,13.72
2019-03-04T08:58:09.181Z,14.02
2019-03-04T09:00:46.576Z,14.38
2019-03-04T09:03:16.912Z,14.75
2019-03-04T09:05:48.743Z,15.11
2019-03-04T09:08:19.108Z,15.62
2019-03-04T09:11:07.164Z,15.28
2019-03-04T09:13:40.234Z,14.89
2019-03-04T09:16:21.147Z,14.60
2019-03-04T09:18:53.042Z,14.60
2019-03-04T09:21:26.574Z,15.02
2019-03-04T09:24:00.143Z,15.44
2019-03-04T09:26:30.495Z,15.60
2019-03-04T09:29:00.750Z,15.86
2019-03-04T09:31:36.925Z,15.94
2019-03-04T09:34:07.251Z,15.86
2019-03-04T09:36:37.657Z,15.42
2019-03-04T09:39:11.001Z,15.22
2019-03-04T09:42:01.916Z,15.03
2019-03-04T09:44:32.263Z,14.99
2019-03-04T09:47:02.517Z,14.70
2019-03-04T09:49:36.974Z,14.73
2019-03-04T09:52:07.531Z,14.73
2019-03-04T09:54:38.883Z,14.76
2019-03-04T09:57:27.236Z,15.15
2019-03-04T10:00:42.055Z,15.39
2019-03-04T10:03:38.593Z,15.17
2019-03-04T10:06:27.486Z,15.33
2019-03-04T10:09:06.980Z,15.22
2019-03-04T10:12:06.953Z,14.97
2019-03-04T10:15:08.504Z,14.90
2019-03-04T10:17:55.511Z,15.07
2019-03-04T10:20:45.379Z,15.05
2019-03-04T10:23:27.765Z,15.28
2019-03-04T10:26:07.437Z,15.53
2019-03-04T10:29:06.847Z,15.83
2019-03-04T10:31:55.611Z,15.69
2019-03-04T10:34:47.194Z,15.95
2019-03-04T10:37:25.921Z,15.86
2019-03-04T10:40:15.639Z,16.13
2019-03-04T10:42:52.389Z,16.46
2019-03-04T10:45:31.904Z,16.63
2019-03-04T10:48:02.203Z,16.39
2019-03-04T10:50:34.478Z,16.14
2019-03-04T10:53:04.830Z,15.85
2019-03-04T10:55:41.889Z,15.66
2019-03-04T10:58:08.526Z,15.28
2019-03-04T11:00:41.173Z,15.22
2019-03-04T11:03:12.774Z,15.38
2019-03-04T11:05:43.129Z,15.43
2019-03-04T11:08:13.811Z,15.67
2019-03-04T11:10:48.225Z,15.68
2019-03-04T11:13:18.560Z,15.76
2019-03-04T11:15:51.229Z,15.81
2019-03-04T11:18:21.762Z,15.90
2019-03-04T11:20:53.218Z,15.92
2019-03-04T11:23:24.523Z,15.84
2019-03-04T11:25:55.235Z,15.97
2019-03-04T11:28:27.387Z,16.07
2019-03-04T11:30:57.815Z,16.12
2019-03-04T11:33:28.337Z,16.12
2019-03-04T11:35:58.608Z,16.08
2019-03-04T11:38:31.922Z,16.01
2019-03-04T11:41:03.429Z,16.03
2019-03-04T11:43:33.768Z,15.85
2019-03-04T11:46:04.109Z,15.80
2019-03-04T11:48:34.534Z,15.86
2019-03-04T11:51:06.318Z,15.82
2019-03-04T11:53:36.599Z,15.84
2019-03-04T11:56:06.886Z,16.01
2019-03-04T11:58:37.170Z,16.18
2019-03-04T12:01:12.076Z,16.33
2019-03-04T12:03:42.431Z,16.53
2019-03-04T12:06:12.788Z,16.58
2019-03-04T12:08:43.083Z,16.63
2019-03-04T12:11:13.729Z,16.92
2019-03-04T12:13:44.313Z,17.16
2019-03-04T12:16:14.819Z,17.28
2019-03-04T12:18:45.154Z,17.13
2019-03-04T12:21:15.592Z,16.92
2019-03-04T12:23:45.861Z,16.91
2019-03-04T12:26:18.387Z,16.84
2019-03-04T12:28:48.148Z,16.67
2019-03-04T12:31:18.876Z,16.47
2019-03-04T12:33:49.460Z,16.40
2019-03-04T12:36:22.387Z,16.31
2019-03-04T12:39:10.674Z,16.23
2019-03-04T12:41:41.660Z,16.15
2019-03-04T12:52:35.788Z,15.95
2019-03-04T12:55:08.951Z,15.91
2019-03-04T12:57:39.239Z,15.77
2019-03-04T13:00:27.518Z,15.69
2019-03-04T13:02:58.330Z,15.62
2019-03-04T13:05:28.720Z,15.47
2019-03-04T13:07:58.977Z,15.35
2019-03-04T13:10:31.553Z,15.29
2019-03-04T13:13:01.203Z,15.23
2019-03-04T13:15:36.210Z,15.17
2019-03-04T13:18:14.129Z,15.14
2019-03-04T13:20:44.372Z,15.05
2019-03-04T13:23:14.633Z,15.02
2019-03-04T13:25:44.886Z,15.03
2019-03-04T13:28:15.140Z,15.12
2019-03-04T13:30:45.403Z,15.26
2019-03-04T13:33:16.045Z,15.33
2019-03-04T13:35:46.359Z,15.40
2019-03-04T13:38:16.679Z,15.51
2019-03-04T13:40:48.157Z,15.54
2019-03-04T13:43:18.695Z,15.62
2019-03-04T13:45:49.219Z,15.63
2019-03-04T13:48:19.474Z,15.66
2019-03-04T13:50:49.733Z,15.65
2019-03-04T13:53:19.987Z,15.63
2019-03-04T13:55:50.431Z,15.66
2019-03-04T13:58:20.752Z,15.73
2019-03-04T14:00:51.076Z,15.86
2019-03-04T14:03:21.326Z,16.19
2019-03-04T14:05:51.611Z,16.47
2019-03-04T14:08:21.939Z,16.67
2019-03-04T14:10:53.621Z,16.87
2019-03-04T14:13:23.884Z,16.73
2019-03-04T14:15:57.477Z,16.56
2019-03-04T14:18:27.957Z,16.46
2019-03-04T14:20:58.277Z,16.30
2019-03-04T14:23:28.556Z,16.13
2019-03-04T14:25:58.963Z,16.04
2019-03-04T14:28:29.491Z,15.93
2019-03-04T14:31:01.571Z,15.93
2019-03-04T14:33:32.082Z,15.84
2019-03-04T14:36:02.740Z,15.73
2019-03-04T14:38:33.258Z,15.61
2019-03-04T14:41:03.686Z,15.60
2019-03-04T14:43:34.200Z,15.61
2019-03-04T14:46:05.609Z,15.63
2019-03-04T14:48:37.095Z,15.64
2019-03-04T14:51:08.533Z,15.56
2019-03-04T14:53:40.920Z,15.55
2019-03-04T14:56:11.476Z,15.51
2019-03-04T14:58:44.534Z,15.48
2019-03-04T15:01:14.975Z,15.46
2019-03-04T15:03:46.505Z,15.34
2019-03-04T15:06:16.953Z,15.22
2019-03-04T15:08:47.469Z,15.16
2019-03-04T15:11:18.031Z,15.19
2019-03-04T15:13:49.491Z,15.29
2019-03-04T15:16:19.969Z,15.38
2019-03-04T15:18:51.420Z,15.39
2019-03-04T15:21:22.885Z,15.33
2019-03-04T15:23:54.643Z,15.18
2019-03-04T15:26:26.581Z,14.97
2019-03-04T15:28:56.915Z,14.81
2019-03-04T15:31:28.384Z,14.65
2019-03-04T15:33:59.818Z,14.44
2019-03-04T15:36:31.281Z,14.32
2019-03-04T15:39:05.285Z,14.17
2019-03-04T15:41:40.286Z,14.10
2019-03-04T15:44:09.012Z,14.11
2019-03-04T15:46:41.414Z,14.07
2019-03-04T15:49:12.907Z,14.05
2019-03-04T15:51:43.377Z,13.98
2019-03-04T15:54:13.886Z,13.94
2019-03-04T15:56:45.385Z,13.90
2019-03-04T15:59:20.488Z,13.83
2019-03-04T16:01:51.032Z,13.76
2019-03-04T16:04:22.491Z,13.68
2019-03-04T16:06:58.565Z,13.56
2019-03-04T16:09:30.183Z,13.47
2019-03-04T16:12:00.518Z,13.35
2019-03-04T16:14:32.191Z,13.26
2019-03-04T16:17:02.685Z,13.14
2019-03-04T16:19:36.912Z,13.03
2019-03-04T16:22:10.326Z,13.02
2019-03-04T16:24:40.833Z,12.97
2019-03-04T16:27:12.128Z,12.88
2019-03-04T16:29:42.547Z,12.80
2019-03-04T16:32:13.969Z,12.73
2019-03-04T16:34:44.508Z,12.67
2019-03-04T16:37:15.042Z,12.61
2019-03-04T16:39:45.559Z,12.54
2019-03-04T16:42:15.937Z,12.48
2019-03-04T16:44:46.336Z,12.46
2019-03-04T16:47:17.769Z,12.41
2019-03-04T16:49:49.305Z,12.34
2019-03-04T16:52:23.849Z,12.29
2019-03-04T16:54:57.456Z,12.20
2019-03-04T16:57:28.933Z,12.14
2019-03-04T17:00:02.733Z,12.07
2019-03-04T17:02:36.018Z,12.02
2019-03-04T17:05:10.651Z,11.98
2019-03-04T17:07:41.574Z,11.93
2019-03-04T17:10:20.834Z,11.87
2019-03-04T17:12:57.450Z,11.82
2019-03-04T17:15:28.936Z,11.76
2019-03-04T17:18:02.224Z,11.78
2019-03-04T17:20:34.279Z,11.72
2019-03-04T17:23:06.038Z,11.77
2019-03-04T17:25:36.560Z,11.82
2019-03-04T17:28:08.012Z,11.84
2019-03-04T17:30:39.452Z,11.92
2019-03-04T17:33:09.994Z,11.95
2019-03-04T17:35:41.441Z,11.96
2019-03-04T17:38:11.970Z,12.19
2019-03-04T17:40:45.483Z,12.20
2019-03-04T17:43:15.979Z,12.19
2019-03-04T17:45:46.517Z,12.15
2019-03-04T17:48:17.518Z,12.09
2019-03-04T17:50:48.162Z,12.05
2019-03-04T17:53:18.547Z,12.04
2019-03-04T17:55:50.881Z,12.02
2019-03-04T17:58:21.431Z,12.02
2019-03-04T18:00:53.569Z,11.99
2019-03-04T18:03:28.608Z,12.05
2019-03-04T18:06:00.711Z,12.01
2019-03-04T18:08:32.982Z,12.02
2019-03-04T18:11:05.377Z,11.98
2019-03-04T18:13:38.551Z,11.98
2019-03-04T18:16:11.719Z,11.97
2019-03-04T18:18:47.710Z,12.00
2019-03-04T18:21:19.637Z,11.98
2019-03-04T18:23:51.337Z,11.94
2019-03-04T18:26:25.394Z,11.87
2019-03-04T18:29:08.309Z,11.85
2019-03-04T18:32:06.519Z,11.75
2019-03-04T18:34:58.768Z,11.77
2019-03-04T18:37:58.492Z,11.67
2019-03-04T18:41:14.761Z,11.62
2019-03-04T18:44:23.228Z,11.66
2019-03-04T18:47:22.319Z,11.60
2019-03-04T18:49:55.364Z,11.58
2019-03-04T18:52:25.847Z,11.49
2019-03-04T18:54:56.122Z,11.57
2019-03-04T18:57:26.488Z,11.59
2019-03-04T18:59:56.845Z,11.61
2019-03-04T19:02:27.405Z,11.63
2019-03-04T19:04:58.150Z,11.68
2019-03-04T19:07:29.936Z,11.45
2019-03-04T19:10:02.786Z,11.18
2019-03-04T19:12:33.715Z,10.93
2019-03-04T19:15:06.304Z,10.77
2019-03-04T19:17:36.818Z,10.60
2019-03-04T19:20:12.881Z,10.43
2019-03-04T19:22:44.968Z,10.29
2019-03-04T19:25:15.386Z,10.15
2019-03-04T19:27:46.116Z,10.02
2019-03-04T19:30:19.806Z,9.90
2019-03-04T19:32:52.206Z,9.77
2019-03-04T19:35:25.996Z,9.69
2019-03-04T19:38:00.136Z,9.67
2019-03-04T19:40:30.894Z,9.65
2019-03-04T19:43:01.690Z,9.64
2019-03-04T19:45:32.351Z,9.60
2019-03-04T19:48:04.017Z,9.47
2019-03-04T19:50:37.303Z,9.45
2019-03-04T19:53:07.794Z,9.40
2019-03-04T19:55:40.130Z,9.28
2019-03-04T19:58:10.705Z,9.07
2019-03-04T20:00:41.173Z,8.82
2019-03-04T20:03:12.037Z,8.61
2019-03-04T20:05:43.952Z,8.52
2019-03-04T20:08:16.321Z,8.42
2019-03-04T20:10:48.296Z,8.32
2019-03-04T20:13:18.742Z,8.20
2019-03-04T20:15:53.421Z,8.06
2019-03-04T20:18:26.658Z,8.00
2019-03-04T20:21:00.753Z,7.89
2019-03-04T20:23:33.609Z,7.83
2019-03-04T20:26:04.376Z,7.71
2019-03-04T20:28:35.145Z,7.64
2019-03-04T20:31:05.746Z,7.60
2019-03-04T20:33:36.189Z,7.54
2019-03-04T20:36:10.253Z,7.49
2019-03-04T20:38:49.053Z,7.40
2019-03-04T20:41:23.872Z,7.36
2019-03-04T20:43:59.822Z,7.28
2019-03-04T20:46:31.089Z,7.26
2019-03-04T20:49:04.292Z,7.15
2019-03-04T20:51:34.963Z,7.09
2019-03-04T20:54:09.750Z,7.06
2019-03-04T20:56:43.995Z,6.99
2019-03-04T20:59:16.038Z,6.99
2019-03-04T21:01:48.532Z,6.95
2019-03-04T21:04:18.984Z,6.89
2019-03-04T21:06:51.306Z,6.84
2019-03-04T21:09:21.839Z,6.81
2019-03-04T21:11:53.422Z,6.76
2019-03-04T21:14:24.241Z,6.72
2019-03-04T21:16:57.513Z,6.66
2019-03-04T21:19:27.928Z,6.66
2019-03-04T21:21:59.920Z,6.61
2019-03-04T21:24:31.799Z,6.54
2019-03-04T21:27:02.160Z,6.56
2019-03-04T21:29:48.016Z,6.57
2019-03-04T21:32:24.211Z,6.56
2019-03-04T21:35:08.537Z,6.54
2019-03-04T21:37:41.212Z,6.58
2019-03-04T21:40:20.405Z,6.60
2019-03-04T21:43:01.370Z,6.69
2019-03-04T21:45:56.141Z,6.72
2019-03-04T21:48:34.146Z,6.76
2019-03-04T21:51:47.207Z,6.82
2019-03-04T21:54:18.387Z,6.81
2019-03-04T21:57:07.259Z,6.77
2019-03-04T21:59:38.075Z,6.79
2019-03-04T22:02:28.789Z,6.77
2019-03-04T22:05:02.758Z,6.76
2019-03-04T22:07:37.485Z,6.75
2019-03-04T22:10:11.247Z,6.73
2019-03-04T22:12:46.665Z,6.65
2019-03-04T22:15:17.563Z,6.64
2019-03-04T22:17:48.487Z,6.62
2019-03-04T22:20:19.043Z,6.58
2019-03-04T22:22:49.556Z,6.63
2019-03-04T22:25:21.057Z,6.63
2019-03-04T22:27:54.334Z,6.61
2019-03-04T22:30:26.191Z,6.65
2019-03-04T22:33:05.871Z,6.66
2019-03-04T22:35:37.582Z,6.68
2019-03-04T22:38:10.289Z,6.70
2019-03-04T22:40:42.373Z,6.73
2019-03-04T22:43:16.023Z,6.73
2019-03-04T22:45:49.388Z,6.73
2019-03-04T22:48:19.688Z,6.76
2019-03-04T22:50:51.671Z,6.79
2019-03-04T22:53:25.485Z,6.78
2019-03-04T22:56:00.113Z,6.80
2019-03-04T22:58:30.601Z,6.82
2019-03-04T23:01:10.771Z,6.81
2019-03-04T23:04:06.969Z,6.82
2019-03-04T23:06:53.719Z,6.83
2019-03-04T23:09:27.318Z,6.84
2019-03-04T23:12:03.705Z,6.82
2019-03-04T23:14:35.165Z,6.83
2019-03-04T23:17:06.687Z,6.82
2019-03-04T23:19:39.996Z,6.85
2019-03-04T23:22:12.596Z,6.86
2019-03-04T23:24:47.034Z,6.87
2019-03-04T23:27:19.858Z,6.88
2019-03-04T23:29:57.765Z,6.83
2019-03-04T23:32:41.593Z,6.81
2019-03-04T23:35:12.485Z,6.79
2019-03-04T23:37:42.763Z,6.82
2019-03-04T23:40:13.001Z,6.81
2019-03-04T23:42:43.313Z,6.82
2019-03-04T23:45:13.560Z,6.86
2019-03-04T23:47:43.805Z,6.89
2019-03-04T23:50:19.921Z,6.89
2019-03-04T23:52:50.243Z,6.87
2019-03-04T23:55:21.599Z,6.89
2019-03-04T23:57:51.915Z,6.91
